sensor_id;sensor_type;location;lat;lon;timestamp;temperature;humidity
66013;DHT22;52783;50.502;8.190;2022-08-06T00:01:00;15.40;63.90
66013;DHT22;52783;50.502;8.190;2022-08-06T00:03:25;15.50;62.60
66013;DHT22;52783;50.502;8.190;2022-08-06T00:05:51;15.50;62.00
66013;DHT22;52783;50.502;8.190;2022-08-06T00:08:17;15.40;61.90
66013;DHT22;52783;50.502;8.190;2022-08-06T00:10:43;15.40;63.10
66013;DHT22;52783;50.502;8.190;2022-08-06T00:13:09;15.30;62.70
66013;DHT22;52783;50.502;8.190;2022-08-06T00:15:34;15.20;62.40
66013;DHT22;52783;50.502;8.190;2022-08-06T00:18:00;15.30;62.80
66013;DHT22;52783;50.502;8.190;2022-08-06T00:20:26;15.30;61.60
66013;DHT22;52783;50.502;8.190;2022-08-06T00:22:52;15.30;61.60
66013;DHT22;52783;50.502;8.190;2022-08-06T00:25:17;15.40;62.20
66013;DHT22;52783;50.502;8.190;2022-08-06T00:27:43;15.40;62.20
66013;DHT22;52783;50.502;8.190;2022-08-06T00:30:09;15.30;61.90
66013;DHT22;52783;50.502;8.190;2022-08-06T00:32:35;15.30;62.70
66013;DHT22;52783;50.502;8.190;2022-08-06T00:35:01;15.20;63.00
66013;DHT22;52783;50.502;8.190;2022-08-06T00:37:27;15.20;63.30
66013;DHT22;52783;50.502;8.190;2022-08-06T00:39:54;15.10;63.70
66013;DHT22;52783;50.502;8.190;2022-08-06T00:42:20;15.10;63.40
66013;DHT22;52783;50.502;8.190;2022-08-06T00:44:47;15.10;63.20
66013;DHT22;52783;50.502;8.190;2022-08-06T00:47:12;15.10;63.80
66013;DHT22;52783;50.502;8.190;2022-08-06T00:49:38;15.00;64.30
66013;DHT22;52783;50.502;8.190;2022-08-06T00:52:04;15.00;64.20
66013;DHT22;52783;50.502;8.190;2022-08-06T00:54:30;15.00;64.00
66013;DHT22;52783;50.502;8.190;2022-08-06T00:56:55;14.90;64.50
66013;DHT22;52783;50.502;8.190;2022-08-06T00:59:21;14.90;64.80
66013;DHT22;52783;50.502;8.190;2022-08-06T01:01:46;14.80;64.80
66013;DHT22;52783;50.502;8.190;2022-08-06T01:04:12;14.80;65.00
66013;DHT22;52783;50.502;8.190;2022-08-06T01:06:38;14.70;65.30
66013;DHT22;52783;50.502;8.190;2022-08-06T01:09:04;14.70;65.70
66013;DHT22;52783;50.502;8.190;2022-08-06T01:11:29;14.60;65.70
66013;DHT22;52783;50.502;8.190;2022-08-06T01:13:55;14.70;65.90
66013;DHT22;52783;50.502;8.190;2022-08-06T01:16:39;14.60;65.90
66013;DHT22;52783;50.502;8.190;2022-08-06T01:22:26;14.60;66.40
66013;DHT22;52783;50.502;8.190;2022-08-06T01:27:58;14.70;66.70
66013;DHT22;52783;50.502;8.190;2022-08-06T01:30:32;14.70;66.80
66013;DHT22;52783;50.502;8.190;2022-08-06T01:35:31;14.60;66.70
66013;DHT22;52783;50.502;8.190;2022-08-06T01:38:16;14.50;67.20
66013;DHT22;52783;50.502;8.190;2022-08-06T01:40:44;14.40;67.20
66013;DHT22;52783;50.502;8.190;2022-08-06T01:43:14;14.30;67.80
66013;DHT22;52783;50.502;8.190;2022-08-06T01:45:41;14.20;68.40
66013;DHT22;52783;50.502;8.190;2022-08-06T01:48:12;14.10;68.80
66013;DHT22;52783;50.502;8.190;2022-08-06T01:50:41;14.00;69.10
66013;DHT22;52783;50.502;8.190;2022-08-06T01:53:08;14.00;69.60
66013;DHT22;52783;50.502;8.190;2022-08-06T01:55:42;13.90;70.00
66013;DHT22;52783;50.502;8.190;2022-08-06T01:58:10;13.90;70.30
66013;DHT22;52783;50.502;8.190;2022-08-06T02:00:38;13.90;71.30
66013;DHT22;52783;50.502;8.190;2022-08-06T02:03:10;13.90;70.80
66013;DHT22;52783;50.502;8.190;2022-08-06T02:05:37;13.80;70.80
66013;DHT22;52783;50.502;8.190;2022-08-06T02:08:04;13.80;71.20
66013;DHT22;52783;50.502;8.190;2022-08-06T02:10:32;13.80;71.40
66013;DHT22;52783;50.502;8.190;2022-08-06T02:13:01;13.70;71.50
66013;DHT22;52783;50.502;8.190;2022-08-06T02:15:28;13.70;71.90
66013;DHT22;52783;50.502;8.190;2022-08-06T02:17:58;13.70;72.00
66013;DHT22;52783;50.502;8.190;2022-08-06T02:20:29;13.70;72.20
66013;DHT22;52783;50.502;8.190;2022-08-06T02:22:57;13.70;72.20
66013;DHT22;52783;50.502;8.190;2022-08-06T02:25:25;13.70;72.10
66013;DHT22;52783;50.502;8.190;2022-08-06T02:27:53;13.70;72.30
66013;DHT22;52783;50.502;8.190;2022-08-06T02:30:19;13.70;72.20
66013;DHT22;52783;50.502;8.190;2022-08-06T02:32:45;13.70;72.30
66013;DHT22;52783;50.502;8.190;2022-08-06T02:35:11;13.70;72.00
66013;DHT22;52783;50.502;8.190;2022-08-06T02:37:48;13.70;71.90
66013;DHT22;52783;50.502;8.190;2022-08-06T02:40:25;13.80;72.30
66013;DHT22;52783;50.502;8.190;2022-08-06T02:43:01;13.70;72.00
66013;DHT22;52783;50.502;8.190;2022-08-06T02:46:13;13.70;72.40
66013;DHT22;52783;50.502;8.190;2022-08-06T02:48:56;13.70;73.10
66013;DHT22;52783;50.502;8.190;2022-08-06T02:51:30;13.70;72.70
66013;DHT22;52783;50.502;8.190;2022-08-06T02:54:22;13.60;73.00
66013;DHT22;52783;50.502;8.190;2022-08-06T02:56:51;13.50;73.30
66013;DHT22;52783;50.502;8.190;2022-08-06T02:59:23;13.50;73.60
66013;DHT22;52783;50.502;8.190;2022-08-06T03:01:56;13.50;74.00
66013;DHT22;52783;50.502;8.190;2022-08-06T03:04:25;13.50;74.00
66013;DHT22;52783;50.502;8.190;2022-08-06T03:06:52;13.40;74.00
66013;DHT22;52783;50.502;8.190;2022-08-06T03:09:19;13.40;74.50
66013;DHT22;52783;50.502;8.190;2022-08-06T03:11:46;13.40;74.70
66013;DHT22;52783;50.502;8.190;2022-08-06T03:14:14;13.50;74.80
66013;DHT22;52783;50.502;8.190;2022-08-06T03:16:41;13.50;74.30
66013;DHT22;52783;50.502;8.190;2022-08-06T03:19:08;13.60;74.20
66013;DHT22;52783;50.502;8.190;2022-08-06T03:21:35;13.60;74.70
66013;DHT22;52783;50.502;8.190;2022-08-06T03:24:02;13.50;75.80
66013;DHT22;52783;50.502;8.190;2022-08-06T03:26:29;13.50;75.90
66013;DHT22;52783;50.502;8.190;2022-08-06T03:28:56;13.40;75.70
66013;DHT22;52783;50.502;8.190;2022-08-06T03:31:23;13.40;74.60
66013;DHT22;52783;50.502;8.190;2022-08-06T03:33:49;13.40;76.20
66013;DHT22;52783;50.502;8.190;2022-08-06T03:36:16;13.30;76.60
66013;DHT22;52783;50.502;8.190;2022-08-06T03:38:46;13.30;77.40
66013;DHT22;52783;50.502;8.190;2022-08-06T03:41:14;13.30;78.40
66013;DHT22;52783;50.502;8.190;2022-08-06T03:43:40;13.20;78.80
66013;DHT22;52783;50.502;8.190;2022-08-06T03:46:07;13.20;78.80
66013;DHT22;52783;50.502;8.190;2022-08-06T03:48:37;13.20;78.30
66013;DHT22;52783;50.502;8.190;2022-08-06T03:51:10;13.00;79.10
66013;DHT22;52783;50.502;8.190;2022-08-06T03:53:38;12.90;79.30
66013;DHT22;52783;50.502;8.190;2022-08-06T03:56:07;13.00;79.40
66013;DHT22;52783;50.502;8.190;2022-08-06T03:58:37;13.00;80.40
66013;DHT22;52783;50.502;8.190;2022-08-06T04:01:09;13.00;80.10
66013;DHT22;52783;50.502;8.190;2022-08-06T04:03:36;12.90;81.20
66013;DHT22;52783;50.502;8.190;2022-08-06T04:06:04;12.80;81.50
66013;DHT22;52783;50.502;8.190;2022-08-06T04:08:31;12.80;82.10
66013;DHT22;52783;50.502;8.190;2022-08-06T04:10:58;12.80;81.90
66013;DHT22;52783;50.502;8.190;2022-08-06T04:13:25;12.70;81.90
66013;DHT22;52783;50.502;8.190;2022-08-06T04:15:53;12.70;82.70
66013;DHT22;52783;50.502;8.190;2022-08-06T04:18:23;12.70;82.30
66013;DHT22;52783;50.502;8.190;2022-08-06T04:20:52;12.80;81.70
66013;DHT22;52783;50.502;8.190;2022-08-06T04:23:19;12.90;81.80
66013;DHT22;52783;50.502;8.190;2022-08-06T04:25:49;13.00;81.00
66013;DHT22;52783;50.502;8.190;2022-08-06T04:28:17;13.00;81.00
66013;DHT22;52783;50.502;8.190;2022-08-06T04:30:45;13.00;82.40
66013;DHT22;52783;50.502;8.190;2022-08-06T04:33:13;13.20;80.90
66013;DHT22;52783;50.502;8.190;2022-08-06T04:35:40;13.00;82.20
66013;DHT22;52783;50.502;8.190;2022-08-06T04:38:07;13.10;82.00
66013;DHT22;52783;50.502;8.190;2022-08-06T04:40:33;13.30;81.40
66013;DHT22;52783;50.502;8.190;2022-08-06T04:43:01;13.40;80.10
66013;DHT22;52783;50.502;8.190;2022-08-06T04:45:27;13.60;78.90
66013;DHT22;52783;50.502;8.190;2022-08-06T04:47:54;13.90;78.70
66013;DHT22;52783;50.502;8.190;2022-08-06T04:50:21;14.00;77.70
66013;DHT22;52783;50.502;8.190;2022-08-06T04:52:46;14.20;77.20
66013;DHT22;52783;50.502;8.190;2022-08-06T04:55:12;14.50;76.50
66013;DHT22;52783;50.502;8.190;2022-08-06T04:57:37;14.80;75.60
66013;DHT22;52783;50.502;8.190;2022-08-06T05:00:04;15.00;73.30
66013;DHT22;52783;50.502;8.190;2022-08-06T05:02:29;15.30;71.40
66013;DHT22;52783;50.502;8.190;2022-08-06T05:04:56;15.60;69.90
66013;DHT22;52783;50.502;8.190;2022-08-06T05:07:28;16.20;68.10
66013;DHT22;52783;50.502;8.190;2022-08-06T05:09:58;16.40;68.60
66013;DHT22;52783;50.502;8.190;2022-08-06T05:12:32;16.70;66.80
66013;DHT22;52783;50.502;8.190;2022-08-06T05:15:11;17.00;65.00
66013;DHT22;52783;50.502;8.190;2022-08-06T05:18:01;17.40;63.30
66013;DHT22;52783;50.502;8.190;2022-08-06T05:20:29;18.00;61.20
66013;DHT22;52783;50.502;8.190;2022-08-06T05:23:01;18.50;60.50
66013;DHT22;52783;50.502;8.190;2022-08-06T05:25:27;19.10;56.80
66013;DHT22;52783;50.502;8.190;2022-08-06T05:27:54;19.20;55.60
66013;DHT22;52783;50.502;8.190;2022-08-06T05:30:20;18.70;54.60
66013;DHT22;52783;50.502;8.190;2022-08-06T05:32:48;19.00;54.40
66013;DHT22;52783;50.502;8.190;2022-08-06T05:35:14;19.10;53.80
66013;DHT22;52783;50.502;8.190;2022-08-06T05:37:40;19.00;54.20
66013;DHT22;52783;50.502;8.190;2022-08-06T05:40:07;18.90;53.50
66013;DHT22;52783;50.502;8.190;2022-08-06T05:42:33;18.70;55.10
66013;DHT22;52783;50.502;8.190;2022-08-06T05:44:58;18.80;54.90
66013;DHT22;52783;50.502;8.190;2022-08-06T05:47:27;18.80;54.60
66013;DHT22;52783;50.502;8.190;2022-08-06T05:50:03;19.20;55.70
66013;DHT22;52783;50.502;8.190;2022-08-06T05:53:08;20.00;52.20
66013;DHT22;52783;50.502;8.190;2022-08-06T05:55:43;20.70;50.20
66013;DHT22;52783;50.502;8.190;2022-08-06T05:58:15;21.50;47.40
66013;DHT22;52783;50.502;8.190;2022-08-06T06:00:42;21.70;45.00
66013;DHT22;52783;50.502;8.190;2022-08-06T06:03:12;21.80;44.00
66013;DHT22;52783;50.502;8.190;2022-08-06T06:05:38;21.40;45.50
66013;DHT22;52783;50.502;8.190;2022-08-06T06:08:05;21.20;46.40
66013;DHT22;52783;50.502;8.190;2022-08-06T06:10:32;21.10;46.40
66013;DHT22;52783;50.502;8.190;2022-08-06T06:12:59;20.80;46.10
66013;DHT22;52783;50.502;8.190;2022-08-06T06:15:26;20.50;47.50
66013;DHT22;52783;50.502;8.190;2022-08-06T06:18:10;20.70;47.50
66013;DHT22;52783;50.502;8.190;2022-08-06T06:21:00;21.20;46.00
66013;DHT22;52783;50.502;8.190;2022-08-06T06:23:38;21.80;45.60
66013;DHT22;52783;50.502;8.190;2022-08-06T06:26:22;21.50;43.90
66013;DHT22;52783;50.502;8.190;2022-08-06T06:29:11;21.50;44.30
66013;DHT22;52783;50.502;8.190;2022-08-06T06:34:25;22.20;43.30
66013;DHT22;52783;50.502;8.190;2022-08-06T06:37:05;22.90;42.30
66013;DHT22;52783;50.502;8.190;2022-08-06T06:42:17;22.10;42.20
66013;DHT22;52783;50.502;8.190;2022-08-06T06:44:58;21.70;43.30
66013;DHT22;52783;50.502;8.190;2022-08-06T06:47:47;22.30;42.20
66013;DHT22;52783;50.502;8.190;2022-08-06T06:50:25;22.00;40.60
66013;DHT22;52783;50.502;8.190;2022-08-06T06:52:52;22.80;41.10
66013;DHT22;52783;50.502;8.190;2022-08-06T06:55:44;21.50;42.80
66013;DHT22;52783;50.502;8.190;2022-08-06T06:58:16;21.20;40.10
66013;DHT22;52783;50.502;8.190;2022-08-06T07:00:44;20.80;43.00
66013;DHT22;52783;50.502;8.190;2022-08-06T07:03:10;21.10;42.80
66013;DHT22;52783;50.502;8.190;2022-08-06T07:05:40;22.20;42.70
66013;DHT22;52783;50.502;8.190;2022-08-06T07:08:07;22.10;42.00
66013;DHT22;52783;50.502;8.190;2022-08-06T07:10:34;22.50;41.40
66013;DHT22;52783;50.502;8.190;2022-08-06T07:13:01;22.60;39.80
66013;DHT22;52783;50.502;8.190;2022-08-06T07:15:28;23.70;39.30
66013;DHT22;52783;50.502;8.190;2022-08-06T07:17:55;23.80;37.50
66013;DHT22;52783;50.502;8.190;2022-08-06T07:20:31;23.70;37.50
66013;DHT22;52783;50.502;8.190;2022-08-06T07:23:06;23.00;39.20
66013;DHT22;52783;50.502;8.190;2022-08-06T07:25:36;21.30;38.90
66013;DHT22;52783;50.502;8.190;2022-08-06T07:28:03;22.20;40.40
66013;DHT22;52783;50.502;8.190;2022-08-06T07:30:30;21.50;41.00
66013;DHT22;52783;50.502;8.190;2022-08-06T07:32:58;21.00;43.10
66013;DHT22;52783;50.502;8.190;2022-08-06T07:35:24;21.90;41.20
66013;DHT22;52783;50.502;8.190;2022-08-06T07:38:10;22.10;40.90
66013;DHT22;52783;50.502;8.190;2022-08-06T07:40:48;22.20;40.40
66013;DHT22;52783;50.502;8.190;2022-08-06T07:43:21;21.70;42.60
66013;DHT22;52783;50.502;8.190;2022-08-06T07:45:49;21.80;41.50
66013;DHT22;52783;50.502;8.190;2022-08-06T07:48:16;22.90;40.10
66013;DHT22;52783;50.502;8.190;2022-08-06T07:50:47;23.00;38.70
66013;DHT22;52783;50.502;8.190;2022-08-06T07:53:15;22.40;38.80
66013;DHT22;52783;50.502;8.190;2022-08-06T07:55:42;21.50;40.00
66013;DHT22;52783;50.502;8.190;2022-08-06T07:58:09;20.50;43.20
66013;DHT22;52783;50.502;8.190;2022-08-06T08:00:36;20.60;43.50
66013;DHT22;52783;50.502;8.190;2022-08-06T08:03:03;19.80;44.20
66013;DHT22;52783;50.502;8.190;2022-08-06T08:05:48;20.30;43.80
66013;DHT22;52783;50.502;8.190;2022-08-06T08:08:33;20.80;40.00
66013;DHT22;52783;50.502;8.190;2022-08-06T08:10:59;21.90;39.50
66013;DHT22;52783;50.502;8.190;2022-08-06T08:13:25;22.50;36.70
66013;DHT22;52783;50.502;8.190;2022-08-06T08:15:52;22.40;36.00
66013;DHT22;52783;50.502;8.190;2022-08-06T08:18:19;23.80;35.70
66013;DHT22;52783;50.502;8.190;2022-08-06T08:20:45;24.50;33.60
66013;DHT22;52783;50.502;8.190;2022-08-06T08:23:13;24.20;34.20
66013;DHT22;52783;50.502;8.190;2022-08-06T08:25:39;23.60;32.60
66013;DHT22;52783;50.502;8.190;2022-08-06T08:28:06;21.50;35.20
66013;DHT22;52783;50.502;8.190;2022-08-06T08:30:32;22.10;37.70
66013;DHT22;52783;50.502;8.190;2022-08-06T08:32:57;22.80;36.20
66013;DHT22;52783;50.502;8.190;2022-08-06T08:35:23;23.00;35.50
66013;DHT22;52783;50.502;8.190;2022-08-06T08:37:48;21.20;36.50
66013;DHT22;52783;50.502;8.190;2022-08-06T08:40:14;21.20;37.20
66013;DHT22;52783;50.502;8.190;2022-08-06T08:42:45;23.30;36.00
66013;DHT22;52783;50.502;8.190;2022-08-06T08:45:12;23.50;34.30
66013;DHT22;52783;50.502;8.190;2022-08-06T08:47:44;23.40;35.90
66013;DHT22;52783;50.502;8.190;2022-08-06T08:50:10;22.80;33.90
66013;DHT22;52783;50.502;8.190;2022-08-06T08:52:38;23.20;34.20
66013;DHT22;52783;50.502;8.190;2022-08-06T08:55:06;23.50;34.10
66013;DHT22;52783;50.502;8.190;2022-08-06T08:57:35;23.50;34.00
66013;DHT22;52783;50.502;8.190;2022-08-06T09:00:03;23.30;34.80
66013;DHT22;52783;50.502;8.190;2022-08-06T09:02:29;23.40;34.00
66013;DHT22;52783;50.502;8.190;2022-08-06T09:04:56;23.40;34.00
66013;DHT22;52783;50.502;8.190;2022-08-06T09:07:21;23.00;35.70
66013;DHT22;52783;50.502;8.190;2022-08-06T09:09:47;22.90;33.50
66013;DHT22;52783;50.502;8.190;2022-08-06T09:12:13;23.20;35.20
66013;DHT22;52783;50.502;8.190;2022-08-06T09:14:38;23.60;34.00
66013;DHT22;52783;50.502;8.190;2022-08-06T09:17:05;22.90;33.70
66013;DHT22;52783;50.502;8.190;2022-08-06T09:19:32;23.90;33.70
66013;DHT22;52783;50.502;8.190;2022-08-06T09:21:58;23.90;32.70
66013;DHT22;52783;50.502;8.190;2022-08-06T09:24:25;22.70;33.90
66013;DHT22;52783;50.502;8.190;2022-08-06T09:27:13;23.50;33.70
66013;DHT22;52783;50.502;8.190;2022-08-06T09:29:56;23.90;33.70
66013;DHT22;52783;50.502;8.190;2022-08-06T09:32:42;21.80;36.50
66013;DHT22;52783;50.502;8.190;2022-08-06T09:35:27;21.60;37.20
66013;DHT22;52783;50.502;8.190;2022-08-06T09:38:02;22.00;36.50
66013;DHT22;52783;50.502;8.190;2022-08-06T09:40:28;21.40;38.10
66013;DHT22;52783;50.502;8.190;2022-08-06T09:42:54;21.10;38.40
66013;DHT22;52783;50.502;8.190;2022-08-06T09:45:21;20.70;38.80
66013;DHT22;52783;50.502;8.190;2022-08-06T09:47:49;21.00;39.70
66013;DHT22;52783;50.502;8.190;2022-08-06T09:50:42;20.60;39.50
66013;DHT22;52783;50.502;8.190;2022-08-06T09:53:08;20.90;37.40
66013;DHT22;52783;50.502;8.190;2022-08-06T09:55:35;21.90;36.70
66013;DHT22;52783;50.502;8.190;2022-08-06T09:58:01;22.20;35.20
66013;DHT22;52783;50.502;8.190;2022-08-06T10:00:32;22.60;36.70
66013;DHT22;52783;50.502;8.190;2022-08-06T10:02:59;23.20;33.80
66013;DHT22;52783;50.502;8.190;2022-08-06T10:05:26;24.30;32.60
66013;DHT22;52783;50.502;8.190;2022-08-06T10:08:14;25.00;32.50
66013;DHT22;52783;50.502;8.190;2022-08-06T10:10:48;24.80;31.40
66013;DHT22;52783;50.502;8.190;2022-08-06T10:13:22;23.00;31.90
66013;DHT22;52783;50.502;8.190;2022-08-06T10:15:53;23.90;31.80
66013;DHT22;52783;50.502;8.190;2022-08-06T10:18:40;23.20;32.80
66013;DHT22;52783;50.502;8.190;2022-08-06T10:21:09;22.80;33.50
66013;DHT22;52783;50.502;8.190;2022-08-06T10:23:37;22.30;36.50
66013;DHT22;52783;50.502;8.190;2022-08-06T10:26:07;21.40;37.20
66013;DHT22;52783;50.502;8.190;2022-08-06T10:28:35;21.00;38.00
66013;DHT22;52783;50.502;8.190;2022-08-06T10:31:03;21.30;41.50
66013;DHT22;52783;50.502;8.190;2022-08-06T10:33:33;21.10;39.10
66013;DHT22;52783;50.502;8.190;2022-08-06T10:36:04;20.90;38.90
66013;DHT22;52783;50.502;8.190;2022-08-06T10:38:34;21.10;38.70
66013;DHT22;52783;50.502;8.190;2022-08-06T10:41:05;21.30;37.60
66013;DHT22;52783;50.502;8.190;2022-08-06T10:43:32;21.30;37.00
66013;DHT22;52783;50.502;8.190;2022-08-06T10:46:00;21.20;36.20
66013;DHT22;52783;50.502;8.190;2022-08-06T10:48:26;20.60;37.50
66013;DHT22;52783;50.502;8.190;2022-08-06T10:50:52;20.70;38.00
66013;DHT22;52783;50.502;8.190;2022-08-06T10:53:18;20.90;37.20
66013;DHT22;52783;50.502;8.190;2022-08-06T10:55:44;20.80;36.20
66013;DHT22;52783;50.502;8.190;2022-08-06T10:58:10;20.90;36.80
66013;DHT22;52783;50.502;8.190;2022-08-06T11:00:36;20.50;36.10
66013;DHT22;52783;50.502;8.190;2022-08-06T11:03:24;20.90;36.30
66013;DHT22;52783;50.502;8.190;2022-08-06T11:05:59;20.50;35.50
66013;DHT22;52783;50.502;8.190;2022-08-06T11:08:42;21.10;36.70
66013;DHT22;52783;50.502;8.190;2022-08-06T11:14:11;21.00;35.40
66013;DHT22;52783;50.502;8.190;2022-08-06T11:16:39;21.30;36.70
66013;DHT22;52783;50.502;8.190;2022-08-06T11:19:07;21.60;36.60
66013;DHT22;52783;50.502;8.190;2022-08-06T11:21:43;21.60;35.00
66013;DHT22;52783;50.502;8.190;2022-08-06T11:24:09;21.60;35.50
66013;DHT22;52783;50.502;8.190;2022-08-06T11:26:37;21.50;35.00
66013;DHT22;52783;50.502;8.190;2022-08-06T11:29:05;21.30;36.00
66013;DHT22;52783;50.502;8.190;2022-08-06T11:31:39;21.40;35.90
66013;DHT22;52783;50.502;8.190;2022-08-06T11:34:10;21.30;36.10
66013;DHT22;52783;50.502;8.190;2022-08-06T11:39:15;21.20;34.80
66013;DHT22;52783;50.502;8.190;2022-08-06T11:41:55;20.90;33.40
66013;DHT22;52783;50.502;8.190;2022-08-06T11:44:26;20.90;34.60
66013;DHT22;52783;50.502;8.190;2022-08-06T11:47:19;21.30;35.10
66013;DHT22;52783;50.502;8.190;2022-08-06T11:49:47;21.20;34.00
66013;DHT22;52783;50.502;8.190;2022-08-06T11:55:02;21.30;35.50
66013;DHT22;52783;50.502;8.190;2022-08-06T11:57:30;21.40;34.70
66013;DHT22;52783;50.502;8.190;2022-08-06T12:07:44;21.50;34.70
66013;DHT22;52783;50.502;8.190;2022-08-06T12:10:11;21.40;33.40
66013;DHT22;52783;50.502;8.190;2022-08-06T12:17:39;21.90;34.00
66013;DHT22;52783;50.502;8.190;2022-08-06T12:20:06;21.60;33.00
66013;DHT22;52783;50.502;8.190;2022-08-06T12:22:34;22.10;33.60
66013;DHT22;52783;50.502;8.190;2022-08-06T12:25:03;22.10;33.20
66013;DHT22;52783;50.502;8.190;2022-08-06T12:27:32;22.00;33.70
66013;DHT22;52783;50.502;8.190;2022-08-06T12:29:59;21.90;32.70
66013;DHT22;52783;50.502;8.190;2022-08-06T12:32:30;21.50;32.30
66013;DHT22;52783;50.502;8.190;2022-08-06T12:34:58;21.30;33.00
66013;DHT22;52783;50.502;8.190;2022-08-06T12:37:53;21.50;34.80
66013;DHT22;52783;50.502;8.190;2022-08-06T12:40:20;21.60;33.70
66013;DHT22;52783;50.502;8.190;2022-08-06T12:45:29;21.90;32.80
66013;DHT22;52783;50.502;8.190;2022-08-06T12:48:11;22.30;32.70
66013;DHT22;52783;50.502;8.190;2022-08-06T12:50:42;22.60;32.00
66013;DHT22;52783;50.502;8.190;2022-08-06T12:53:12;22.50;31.90
66013;DHT22;52783;50.502;8.190;2022-08-06T12:55:43;22.20;33.40
66013;DHT22;52783;50.502;8.190;2022-08-06T12:58:10;21.80;32.10
66013;DHT22;52783;50.502;8.190;2022-08-06T13:00:37;21.90;33.10
66013;DHT22;52783;50.502;8.190;2022-08-06T13:03:04;22.00;33.40
66013;DHT22;52783;50.502;8.190;2022-08-06T13:05:30;21.60;32.30
66013;DHT22;52783;50.502;8.190;2022-08-06T13:07:57;21.70;31.50
66013;DHT22;52783;50.502;8.190;2022-08-06T13:10:24;21.70;32.30
66013;DHT22;52783;50.502;8.190;2022-08-06T13:12:57;21.90;31.70
66013;DHT22;52783;50.502;8.190;2022-08-06T13:15:24;22.10;31.70
66013;DHT22;52783;50.502;8.190;2022-08-06T13:20:46;22.30;32.30
66013;DHT22;52783;50.502;8.190;2022-08-06T13:23:14;22.30;30.90
66013;DHT22;52783;50.502;8.190;2022-08-06T13:25:45;22.60;30.20
66013;DHT22;52783;50.502;8.190;2022-08-06T13:28:16;22.80;29.50
66013;DHT22;52783;50.502;8.190;2022-08-06T13:30:43;22.80;29.70
66013;DHT22;52783;50.502;8.190;2022-08-06T13:33:20;23.00;30.20
66013;DHT22;52783;50.502;8.190;2022-08-06T13:35:50;23.00;30.80
66013;DHT22;52783;50.502;8.190;2022-08-06T13:38:33;22.20;31.60
66013;DHT22;52783;50.502;8.190;2022-08-06T13:40:59;22.10;32.50
66013;DHT22;52783;50.502;8.190;2022-08-06T13:43:36;21.80;32.10
66013;DHT22;52783;50.502;8.190;2022-08-06T13:46:11;21.90;32.90
66013;DHT22;52783;50.502;8.190;2022-08-06T13:48:36;21.50;33.20
66013;DHT22;52783;50.502;8.190;2022-08-06T13:51:02;21.70;32.70
66013;DHT22;52783;50.502;8.190;2022-08-06T13:53:28;21.70;32.40
66013;DHT22;52783;50.502;8.190;2022-08-06T13:55:53;21.90;31.90
66013;DHT22;52783;50.502;8.190;2022-08-06T13:58:19;21.80;31.00
66013;DHT22;52783;50.502;8.190;2022-08-06T14:00:45;21.80;31.40
66013;DHT22;52783;50.502;8.190;2022-08-06T14:03:13;21.90;32.00
66013;DHT22;52783;50.502;8.190;2022-08-06T14:05:38;21.90;32.60
66013;DHT22;52783;50.502;8.190;2022-08-06T14:08:04;22.00;31.70
66013;DHT22;52783;50.502;8.190;2022-08-06T14:10:30;22.00;31.00
66013;DHT22;52783;50.502;8.190;2022-08-06T14:12:55;22.00;30.80
66013;DHT22;52783;50.502;8.190;2022-08-06T14:15:39;22.50;31.80
66013;DHT22;52783;50.502;8.190;2022-08-06T14:18:05;22.80;29.70
66013;DHT22;52783;50.502;8.190;2022-08-06T14:20:31;22.90;30.20
66013;DHT22;52783;50.502;8.190;2022-08-06T14:22:57;23.00;29.40
66013;DHT22;52783;50.502;8.190;2022-08-06T14:25:23;23.10;30.30
66013;DHT22;52783;50.502;8.190;2022-08-06T14:27:49;23.30;30.20
66013;DHT22;52783;50.502;8.190;2022-08-06T14:30:16;23.10;30.80
66013;DHT22;52783;50.502;8.190;2022-08-06T14:32:42;23.00;30.00
66013;DHT22;52783;50.502;8.190;2022-08-06T14:35:09;22.80;30.20
66013;DHT22;52783;50.502;8.190;2022-08-06T14:37:35;22.70;31.50
66013;DHT22;52783;50.502;8.190;2022-08-06T14:40:01;22.70;30.80
66013;DHT22;52783;50.502;8.190;2022-08-06T14:42:27;22.60;31.70
66013;DHT22;52783;50.502;8.190;2022-08-06T14:45:11;22.40;31.50
66013;DHT22;52783;50.502;8.190;2022-08-06T14:47:36;22.50;31.00
66013;DHT22;52783;50.502;8.190;2022-08-06T14:50:03;22.60;30.30
66013;DHT22;52783;50.502;8.190;2022-08-06T14:52:30;22.40;30.00
66013;DHT22;52783;50.502;8.190;2022-08-06T14:54:56;22.20;29.90
66013;DHT22;52783;50.502;8.190;2022-08-06T14:57:21;22.70;30.40
66013;DHT22;52783;50.502;8.190;2022-08-06T14:59:47;22.80;30.00
66013;DHT22;52783;50.502;8.190;2022-08-06T15:02:13;23.00;30.80
66013;DHT22;52783;50.502;8.190;2022-08-06T15:04:39;22.90;29.40
66013;DHT22;52783;50.502;8.190;2022-08-06T15:07:05;22.80;30.00
66013;DHT22;52783;50.502;8.190;2022-08-06T15:09:32;22.90;30.20
66013;DHT22;52783;50.502;8.190;2022-08-06T15:11:59;23.10;30.00
66013;DHT22;52783;50.502;8.190;2022-08-06T15:14:25;23.30;29.70
66013;DHT22;52783;50.502;8.190;2022-08-06T15:16:52;23.60;29.50
66013;DHT22;52783;50.502;8.190;2022-08-06T15:19:18;23.60;28.90
66013;DHT22;52783;50.502;8.190;2022-08-06T15:21:44;22.90;29.90
66013;DHT22;52783;50.502;8.190;2022-08-06T15:24:09;23.30;29.20
66013;DHT22;52783;50.502;8.190;2022-08-06T15:26:35;23.20;29.00
66013;DHT22;52783;50.502;8.190;2022-08-06T15:29:00;23.50;29.80
66013;DHT22;52783;50.502;8.190;2022-08-06T15:31:26;23.10;28.90
66013;DHT22;52783;50.502;8.190;2022-08-06T15:33:52;23.30;29.60
66013;DHT22;52783;50.502;8.190;2022-08-06T15:36:17;23.10;28.80
66013;DHT22;52783;50.502;8.190;2022-08-06T15:38:43;23.20;28.60
66013;DHT22;52783;50.502;8.190;2022-08-06T15:41:09;23.30;29.40
66013;DHT22;52783;50.502;8.190;2022-08-06T15:43:34;23.20;29.20
66013;DHT22;52783;50.502;8.190;2022-08-06T15:46:00;23.00;28.70
66013;DHT22;52783;50.502;8.190;2022-08-06T15:48:27;22.80;28.60
66013;DHT22;52783;50.502;8.190;2022-08-06T15:50:53;22.80;29.00
66013;DHT22;52783;50.502;8.190;2022-08-06T15:53:19;22.50;29.60
66013;DHT22;52783;50.502;8.190;2022-08-06T15:55:46;22.40;29.70
66013;DHT22;52783;50.502;8.190;2022-08-06T15:58:11;22.80;29.70
66013;DHT22;52783;50.502;8.190;2022-08-06T16:00:38;22.90;29.50
66013;DHT22;52783;50.502;8.190;2022-08-06T16:03:06;22.80;29.80
66013;DHT22;52783;50.502;8.190;2022-08-06T16:05:32;22.70;29.50
66013;DHT22;52783;50.502;8.190;2022-08-06T16:07:58;22.60;30.20
66013;DHT22;52783;50.502;8.190;2022-08-06T16:10:24;22.60;30.20
66013;DHT22;52783;50.502;8.190;2022-08-06T16:12:50;22.60;31.30
66013;DHT22;52783;50.502;8.190;2022-08-06T16:15:16;22.30;29.30
66013;DHT22;52783;50.502;8.190;2022-08-06T16:17:42;22.00;29.40
66013;DHT22;52783;50.502;8.190;2022-08-06T16:20:08;22.10;30.00
66013;DHT22;52783;50.502;8.190;2022-08-06T16:22:34;22.20;29.20
66013;DHT22;52783;50.502;8.190;2022-08-06T16:24:59;22.40;29.40